Time;durP1;ratioP1;P1;durP2;ratioP2;P2;SDS_P1;SDS_P2;PMS_P1;PMS_P2;Temp;Humidity;BMP_temperature;BMP_pressure;BME280_temperature;BME280_humidity;BME280_pressure;Samples;Min_cycle;Max_cycle;Signal;HPM_P1;HPM_P2
2022/08/16 00:03:16;;;;;;;6.20;5.60;;;;;21.90;98198.00;;;;16718017;28;20740;-48
2022/08/16 00:11:21;;;;;;;5.33;4.87;;;;;21.80;98202.00;;;;16730763;28;20534;-47
2022/08/16 00:19:26;;;;;;;6.77;5.10;;;;;22.00;98201.00;;;;16731083;28;20226;-48
2022/08/16 00:27:32;;;;;;;4.67;3.70;;;;;21.40;98213.00;;;;16730489;28;20206;-48
2022/08/16 00:35:36;;;;;;;3.93;3.60;;;;;20.90;98212.00;;;;16728625;28;20547;-48
2022/08/16 00:43:40;;;;;;;4.37;3.93;;;;;20.50;98225.00;;;;16727774;28;20320;-47
2022/08/16 00:51:43;;;;;;;4.33;3.90;;;;;20.70;98218.00;;;;16728918;28;20210;-48
2022/08/16 00:59:47;;;;;;;4.70;3.80;;;;;20.50;98216.00;;;;16728610;28;20265;-48
2022/08/16 01:07:49;;;;;;;5.40;5.00;;;;;21.40;98228.00;;;;16726988;28;20712;-48
2022/08/16 01:15:56;;;;;;;5.33;4.90;;;;;20.90;98227.00;;;;16725399;28;20313;-49
2022/08/16 01:24:11;;;;;;;6.00;5.20;;;;;21.20;98222.00;;;;16725922;28;20387;-48
2022/08/16 01:32:14;;;;;;;5.90;5.30;;;;;20.90;98229.00;;;;16726944;28;20210;-48
2022/08/16 01:40:20;;;;;;;6.87;6.03;;;;;20.90;98238.00;;;;16725812;28;20225;-48
2022/08/16 01:48:26;;;;;;;8.40;6.10;;;;;20.90;98230.00;;;;16724670;28;20202;-49
2022/08/16 01:56:31;;;;;;;7.07;6.03;;;;;20.60;98228.00;;;;16723914;28;20280;-49
2022/08/16 02:04:34;;;;;;;8.60;6.73;;;;;20.70;98227.00;;;;16722517;28;20225;-49
2022/08/16 02:12:39;;;;;;;5.40;4.90;;;;;20.50;98225.00;;;;16720727;28;20234;-49
2022/08/16 02:20:47;;;;;;;5.57;5.10;;;;;19.30;98222.00;;;;16723019;28;20312;-48
2022/08/16 02:28:51;;;;;;;5.50;5.00;;;;;20.20;98214.00;;;;16720526;28;20223;-49
2022/08/16 02:36:54;;;;;;;7.17;6.50;;;;;21.00;98198.00;;;;16722270;28;20253;-49
2022/08/16 02:45:00;;;;;;;5.23;4.83;;;;;20.00;98210.00;;;;16720665;28;20213;-48
2022/08/16 02:53:03;;;;;;;5.17;4.77;;;;;20.20;98203.00;;;;16719958;28;20218;-48
2022/08/16 03:01:09;;;;;;;5.47;5.07;;;;;20.30;98201.00;;;;16719109;28;20602;-48
2022/08/16 03:09:12;;;;;;;6.10;5.70;;;;;20.60;98201.00;;;;16719220;28;20366;-49
2022/08/16 03:17:19;;;;;;;6.17;5.63;;;;;20.70;98199.00;;;;16719590;28;20769;-48
2022/08/16 03:25:25;;;;;;;9.10;5.33;;;;;20.80;98180.00;;;;16718663;28;20356;-48
2022/08/16 03:33:36;;;;;;;6.80;6.10;;;;;20.70;98184.00;;;;16677758;22;20268;-49
2022/08/16 03:41:40;;;;;;;7.20;6.60;;;;;20.50;98183.00;;;;16600404;28;20722;-49
2022/08/16 03:49:46;;;;;;;7.33;6.63;;;;;20.30;98195.00;;;;16584650;28;20223;-49
2022/08/16 03:57:50;;;;;;;5.43;4.93;;;;;19.30;98181.00;;;;16585468;28;20305;-49
2022/08/16 04:05:55;;;;;;;5.93;5.50;;;;;19.90;98187.00;;;;16601195;28;20742;-49
2022/08/16 04:13:59;;;;;;;5.90;5.40;;;;;19.70;98190.00;;;;16616914;28;20229;-50
2022/08/16 04:22:05;;;;;;;7.27;6.70;;;;;19.90;98198.00;;;;16648419;28;20322;-49
2022/08/16 04:30:18;;;;;;;6.30;5.80;;;;;20.20;98193.00;;;;16648123;28;20226;-49
2022/08/16 04:38:26;;;;;;;7.13;6.10;;;;;20.50;98199.00;;;;16647578;28;20639;-48
2022/08/16 04:46:30;;;;;;;9.27;6.83;;;;;20.30;98203.00;;;;16644028;28;20243;-49
2022/08/16 04:54:34;;;;;;;6.93;6.23;;;;;20.30;98220.00;;;;16593729;28;20204;-50
2022/08/16 05:02:37;;;;;;;7.10;6.50;;;;;20.60;98221.00;;;;16594812;28;20258;-50
2022/08/16 05:10:44;;;;;;;7.57;6.90;;;;;20.80;98205.00;;;;16610217;28;20226;-49
2022/08/16 05:18:49;;;;;;;7.27;6.63;;;;;21.10;98213.00;;;;16609142;28;20227;-49
2022/08/16 05:26:53;;;;;;;7.17;6.57;;;;;20.80;98220.00;;;;16609192;28;20219;-49
2022/08/16 05:34:56;;;;;;;6.93;6.33;;;;;20.80;98221.00;;;;16608742;28;20683;-49
2022/08/16 05:43:00;;;;;;;7.90;7.13;;;;;20.70;98217.00;;;;16607516;28;20230;-50
2022/08/16 05:51:03;;;;;;;8.30;7.57;;;;;21.00;98223.00;;;;16607295;28;20223;-49
2022/08/16 05:59:08;;;;;;;7.67;6.73;;;;;21.10;98232.00;;;;16606570;28;20686;-49
2022/08/16 06:07:11;;;;;;;9.70;8.20;;;;;21.40;98221.00;;;;16604879;28;20225;-49
2022/08/16 06:15:23;;;;;;;9.90;7.57;;;;;21.30;98233.00;;;;16607391;28;20203;-49
2022/08/16 06:23:26;;;;;;;8.33;7.63;;;;;21.60;98232.00;;;;16605402;28;20231;-49
2022/08/16 06:31:40;;;;;;;8.80;8.00;;;;;21.70;98232.00;;;;16605374;28;20231;-49
2022/08/16 06:39:43;;;;;;;8.23;7.17;;;;;21.80;98237.00;;;;16605486;28;20234;-49
2022/08/16 06:47:56;;;;;;;7.50;6.17;;;;;22.20;98227.00;;;;16603199;28;20546;-49
2022/08/16 06:56:05;;;;;;;9.10;8.20;;;;;22.80;98240.00;;;;16602863;28;20219;-49
2022/08/16 07:04:22;;;;;;;7.77;7.17;;;;;23.20;98243.00;;;;16603545;28;20230;-49
2022/08/16 07:12:24;;;;;;;8.30;7.50;;;;;23.50;98243.00;;;;16602560;28;20305;-49
2022/08/16 07:20:29;;;;;;;9.77;8.80;;;;;24.20;98227.00;;;;16602627;28;20644;-49
2022/08/16 07:28:32;;;;;;;8.00;7.27;;;;;24.10;98233.00;;;;16601681;28;20304;-49
2022/08/16 07:36:36;;;;;;;8.50;7.60;;;;;24.40;98228.00;;;;16586212;28;20358;-48
2022/08/16 07:44:38;;;;;;;8.20;7.40;;;;;24.80;98219.00;;;;16600834;28;20223;-49
2022/08/16 07:52:42;;;;;;;9.97;6.77;;;;;25.40;98233.00;;;;16600525;28;20238;-50
2022/08/16 08:00:45;;;;;;;7.23;6.53;;;;;25.60;98225.00;;;;16585720;28;20230;-49
2022/08/16 08:08:49;;;;;;;7.80;7.10;;;;;25.70;98226.00;;;;16600555;28;20223;-50
2022/08/16 08:16:52;;;;;;;7.30;6.67;;;;;25.70;98237.00;;;;16585180;28;20316;-49
2022/08/16 08:25:07;;;;;;;8.33;6.47;;;;;26.10;98243.00;;;;16601156;28;20657;-49
2022/08/16 08:33:11;;;;;;;8.30;7.70;;;;;27.00;98233.00;;;;16612373;28;20238;-49
2022/08/16 08:41:19;;;;;;;6.97;6.27;;;;;27.00;98237.00;;;;16611951;28;20459;-49
2022/08/16 08:49:22;;;;;;;6.50;6.10;;;;;27.00;98239.00;;;;16611561;28;20664;-49
2022/08/16 08:57:26;;;;;;;6.47;6.07;;;;;26.70;98252.00;;;;16596988;28;20218;-50
2022/08/16 09:05:48;;;;;;;8.00;7.30;;;;;27.30;98250.00;;;;16596408;28;20608;-49
2022/08/16 09:13:53;;;;;;;9.77;6.67;;;;;28.30;98260.00;;;;16610584;28;20226;-49
2022/08/16 09:21:58;;;;;;;7.30;6.70;;;;;29.00;98254.00;;;;16609281;28;20595;-49
2022/08/16 09:30:02;;;;;;;7.77;6.87;;;;;29.30;98244.00;;;;16699592;22;20233;-81
2022/08/16 09:38:05;;;;;;;7.00;6.40;;;;;28.20;98245.00;;;;16802419;22;20211;-51
2022/08/16 09:46:09;;;;;;;6.80;6.20;;;;;28.20;98261.00;;;;16800164;28;20197;-50
2022/08/16 09:54:13;;;;;;;6.90;6.30;;;;;28.20;98261.00;;;;16790547;28;20221;-50
2022/08/16 10:02:16;;;;;;;7.73;7.00;;;;;28.10;98247.00;;;;16790768;28;20713;-51
2022/08/16 10:10:20;;;;;;;7.00;6.50;;;;;30.60;98241.00;;;;16793107;28;20752;-51
2022/08/16 10:18:26;;;;;;;7.00;6.30;;;;;29.80;98249.00;;;;16790684;28;20846;-51
2022/08/16 10:26:29;;;;;;;6.43;5.80;;;;;29.70;98248.00;;;;16790266;28;20654;-52
2022/08/16 10:34:33;;;;;;;6.60;6.03;;;;;29.10;98247.00;;;;16788803;28;20294;-52
2022/08/16 10:42:36;;;;;;;5.90;5.40;;;;;31.30;98255.00;;;;16788043;28;20227;-51
2022/08/16 10:50:40;;;;;;;7.13;5.10;;;;;31.60;98252.00;;;;16768551;28;20221;-52
2022/08/16 10:58:42;;;;;;;6.70;4.80;;;;;31.30;98258.00;;;;16788051;28;20712;-53
2022/08/16 11:06:46;;;;;;;5.60;4.70;;;;;32.20;98264.00;;;;16788069;28;20284;-52
2022/08/16 11:14:49;;;;;;;6.50;5.60;;;;;32.70;98252.00;;;;16787617;28;20193;-53
2022/08/16 11:22:53;;;;;;;5.60;4.60;;;;;33.80;98252.00;;;;16786684;28;20378;-53
2022/08/16 11:30:55;;;;;;;6.93;4.73;;;;;32.00;98259.00;;;;16786597;28;20209;-52
2022/08/16 11:38:59;;;;;;;6.60;4.50;;;;;32.30;98257.00;;;;16785323;28;20779;-52
2022/08/16 11:47:02;;;;;;;4.27;3.53;;;;;32.80;98257.00;;;;16785632;28;20760;-53
2022/08/16 11:55:07;;;;;;;6.67;4.93;;;;;32.00;98242.00;;;;16784452;28;20799;-53
2022/08/16 12:03:10;;;;;;;6.00;4.57;;;;;34.40;98243.00;;;;16794444;28;20592;-53
2022/08/16 12:11:14;;;;;;;5.17;4.73;;;;;33.70;98242.00;;;;16798126;28;20300;-53
2022/08/16 12:19:18;;;;;;;6.23;4.33;;;;;34.80;98251.00;;;;16797910;28;20359;-53
2022/08/16 12:27:23;;;;;;;6.13;5.00;;;;;31.50;98233.00;;;;16801051;28;20598;-52
2022/08/16 12:35:28;;;;;;;5.03;4.63;;;;;31.80;98230.00;;;;16797974;28;20690;-51
2022/08/16 12:43:32;;;;;;;8.93;4.53;;;;;34.40;98223.00;;;;16798405;28;20249;-51
2022/08/16 12:51:37;;;;;;;7.47;3.90;;;;;34.30;98214.00;;;;16799292;28;20763;-54
2022/08/16 12:59:41;;;;;;;4.33;3.90;;;;;37.10;98205.00;;;;16796269;28;20355;-54
2022/08/16 13:07:45;;;;;;;4.37;4.07;;;;;37.70;98198.00;;;;16796028;28;20224;-54
2022/08/16 13:15:48;;;;;;;6.03;4.10;;;;;37.10;98200.00;;;;16794054;28;20193;-53
2022/08/16 13:23:51;;;;;;;4.97;4.57;;;;;36.80;98199.00;;;;16794359;28;20274;-53
2022/08/16 13:31:55;;;;;;;6.17;4.73;;;;;36.80;98199.00;;;;16793383;28;20744;-53
2022/08/16 13:39:58;;;;;;;6.03;4.07;;;;;37.40;98194.00;;;;16793552;28;20229;-53
2022/08/16 13:48:04;;;;;;;6.53;4.43;;;;;34.30;98187.00;;;;16792112;28;20444;-52
2022/08/16 13:56:09;;;;;;;4.20;3.90;;;;;37.90;98183.00;;;;16791794;28;20196;-54
2022/08/16 14:04:13;;;;;;;3.90;3.60;;;;;35.90;98176.00;;;;16790970;28;20233;-53
2022/08/16 14:12:21;;;;;;;4.67;4.27;;;;;34.80;98168.00;;;;16789714;28;20209;-53
2022/08/16 14:20:24;;;;;;;4.33;4.03;;;;;35.20;98169.00;;;;16790069;28;20300;-53
2022/08/16 14:28:27;;;;;;;5.30;4.90;;;;;34.50;98166.00;;;;16788695;28;20232;-53
2022/08/16 14:36:31;;;;;;;4.23;3.80;;;;;33.00;98153.00;;;;16789547;28;20189;-52
2022/08/16 14:44:34;;;;;;;4.83;4.37;;;;;33.70;98161.00;;;;16788162;28;20311;-52
2022/08/16 14:52:38;;;;;;;5.37;4.87;;;;;34.10;98161.00;;;;16787024;28;20218;-53
2022/08/16 15:00:41;;;;;;;4.70;4.10;;;;;35.50;98160.00;;;;16787315;28;20235;-54
2022/08/16 15:08:47;;;;;;;4.10;3.90;;;;;35.60;98156.00;;;;16788272;28;20235;-53
2022/08/16 15:16:49;;;;;;;4.20;3.90;;;;;35.20;98153.00;;;;16786549;28;20572;-53
2022/08/16 15:24:57;;;;;;;5.80;4.33;;;;;36.00;98152.00;;;;16786097;28;20728;-53
2022/08/16 15:33:02;;;;;;;5.47;4.03;;;;;36.80;98155.00;;;;16798667;22;20248;-80
2022/08/16 15:41:06;;;;;;;6.97;4.50;;;;;37.90;98155.00;;;;16829412;28;20770;-78
2022/08/16 15:49:09;;;;;;;4.90;4.50;;;;;39.50;98155.00;;;;16824971;28;20295;-79
2022/08/16 15:57:13;;;;;;;4.80;4.40;;;;;38.90;98162.00;;;;16804371;28;20235;-79
2022/08/16 16:05:15;;;;;;;4.33;3.90;;;;;38.10;98160.00;;;;16810164;28;20249;-79
2022/08/16 16:13:20;;;;;;;4.33;3.93;;;;;39.70;98158.00;;;;16804991;28;20213;-79
2022/08/16 16:21:22;;;;;;;3.90;3.60;;;;;38.80;98157.00;;;;16800337;28;20271;-79
2022/08/16 16:29:26;;;;;;;5.70;4.40;;;;;37.90;98155.00;;;;16797945;28;20213;-79
2022/08/16 16:37:29;;;;;;;5.30;4.40;;;;;37.20;98159.00;;;;16794995;28;20202;-78
2022/08/16 16:45:33;;;;;;;5.27;4.80;;;;;38.40;98155.00;;;;16798032;28;20221;-79
2022/08/16 16:53:41;;;;;;;4.00;3.70;;;;;39.90;98155.00;;;;16806835;28;20237;-78
2022/08/16 17:01:48;;;;;;;5.43;4.53;;;;;37.90;98155.00;;;;16794537;28;20261;-78
2022/08/16 17:09:51;;;;;;;4.77;4.30;;;;;37.40;98156.00;;;;16807802;28;20233;-78
2022/08/16 17:17:57;;;;;;;4.57;4.07;;;;;38.80;98167.00;;;;16810069;28;20205;-79
2022/08/16 17:26:00;;;;;;;5.30;4.67;;;;;36.90;98157.00;;;;16807015;28;20228;-79
2022/08/16 17:34:04;;;;;;;4.57;4.17;;;;;37.80;98158.00;;;;16804998;28;20221;-78
2022/08/16 17:42:14;;;;;;;6.93;4.10;;;;;37.60;98166.00;;;;16809152;28;20223;-77
2022/08/16 17:50:23;;;;;;;4.60;4.30;;;;;35.70;98165.00;;;;16853764;28;20216;-78
2022/08/16 17:58:26;;;;;;;6.10;4.77;;;;;35.60;98169.00;;;;16860673;28;20723;-78
2022/08/16 18:06:29;;;;;;;5.30;4.90;;;;;34.20;98180.00;;;;16843750;28;20331;-79
2022/08/16 18:14:35;;;;;;;6.20;5.60;;;;;32.50;98167.00;;;;16859428;28;20708;-78
2022/08/16 18:22:39;;;;;;;6.43;5.87;;;;;30.10;98185.00;;;;16859093;28;20220;-78
2022/08/16 18:30:42;;;;;;;6.00;5.50;;;;;27.70;98184.00;;;;16861926;28;20312;-78
2022/08/16 18:38:46;;;;;;;5.97;5.47;;;;;27.50;98191.00;;;;16870811;28;20208;-78
2022/08/16 18:46:49;;;;;;;7.27;6.17;;;;;27.10;98196.00;;;;16868112;28;20307;-78
2022/08/16 18:54:55;;;;;;;6.10;5.50;;;;;26.70;98199.00;;;;16881028;28;20248;-80
2022/08/16 19:03:05;;;;;;;6.27;5.70;;;;;26.30;98209.00;;;;16860168;28;20229;-80
2022/08/16 19:11:17;;;;;;;7.63;6.87;;;;;25.60;98204.00;;;;16876364;28;20751;-79
2022/08/16 19:19:21;;;;;;;6.27;5.67;;;;;25.40;98221.00;;;;16853501;28;20247;-78
2022/08/16 19:27:25;;;;;;;6.87;6.10;;;;;25.10;98221.00;;;;16865393;28;20333;-79
2022/08/16 19:35:27;;;;;;;6.53;6.03;;;;;24.70;98235.00;;;;16867973;28;20289;-79
2022/08/16 19:43:33;;;;;;;7.30;6.70;;;;;24.80;98246.00;;;;16863152;28;20274;-80
2022/08/16 19:51:36;;;;;;;6.50;5.90;;;;;24.50;98230.00;;;;16876658;28;20270;-80
2022/08/16 19:59:45;;;;;;;7.50;6.53;;;;;24.00;98222.00;;;;16860045;28;20265;-80
2022/08/16 20:07:47;;;;;;;6.90;6.07;;;;;23.80;98227.00;;;;16808206;28;20390;-79
2022/08/16 20:15:51;;;;;;;6.77;6.17;;;;;23.80;98241.00;;;;16796574;28;20603;-78
2022/08/16 20:23:54;;;;;;;7.53;6.83;;;;;23.50;98226.00;;;;16798818;28;20721;-78
2022/08/16 20:31:57;;;;;;;7.17;6.63;;;;;23.10;98230.00;;;;16808576;28;20270;-78
2022/08/16 20:40:00;;;;;;;7.80;7.10;;;;;23.50;98239.00;;;;16789508;28;20220;-78
2022/08/16 20:48:05;;;;;;;8.53;7.50;;;;;23.10;98240.00;;;;16801842;28;20209;-79
2022/08/16 20:56:11;;;;;;;8.47;6.80;;;;;22.90;98244.00;;;;16804224;28;20743;-78
2022/08/16 21:04:15;;;;;;;7.40;6.77;;;;;23.00;98248.00;;;;16803657;28;20704;-78
2022/08/16 21:12:17;;;;;;;6.40;5.90;;;;;23.20;98250.00;;;;16784716;28;20225;-78
2022/08/16 21:20:22;;;;;;;8.10;6.20;;;;;22.70;98255.00;;;;16803875;28;20217;-78
2022/08/16 21:28:24;;;;;;;7.80;6.83;;;;;22.40;98257.00;;;;16798611;28;20312;-78
2022/08/16 21:36:28;;;;;;;7.17;6.00;;;;;22.50;98253.00;;;;16802712;28;20258;-78
2022/08/16 21:44:34;;;;;;;7.00;6.50;;;;;22.60;98265.00;;;;16853409;22;20596;-50
2022/08/16 21:52:38;;;;;;;7.20;6.70;;;;;22.30;98264.00;;;;16816631;28;20225;-50
2022/08/16 22:00:41;;;;;;;7.23;6.63;;;;;22.10;98270.00;;;;16793073;28;20217;-51
2022/08/16 22:08:48;;;;;;;7.17;6.60;;;;;22.30;98269.00;;;;16792047;28;20308;-49
2022/08/16 22:16:50;;;;;;;6.63;6.00;;;;;21.80;98284.00;;;;16791419;28;20190;-49
2022/08/16 22:24:54;;;;;;;7.47;6.87;;;;;21.40;98274.00;;;;16790548;28;20221;-49
2022/08/16 22:32:56;;;;;;;7.50;6.97;;;;;21.70;98287.00;;;;16791046;28;20881;-50
2022/08/16 22:41:02;;;;;;;8.33;6.80;;;;;21.80;98289.00;;;;16830281;28;20240;-51
2022/08/16 22:49:05;;;;;;;7.37;6.70;;;;;21.30;98299.00;;;;16854404;28;20312;-48
2022/08/16 22:57:09;;;;;;;8.33;7.73;;;;;21.10;98282.00;;;;16856581;28;20567;-50
2022/08/16 23:05:16;;;;;;;7.80;7.10;;;;;21.20;98285.00;;;;16854639;28;20311;-50
2022/08/16 23:13:21;;;;;;;7.63;6.90;;;;;21.00;98272.00;;;;16853554;28;20209;-50
2022/08/16 23:21:23;;;;;;;7.40;6.77;;;;;21.60;98269.00;;;;16853355;28;20258;-49
2022/08/16 23:29:28;;;;;;;7.70;7.20;;;;;20.80;98266.00;;;;16853071;28;20303;-50
2022/08/16 23:37:30;;;;;;;7.67;7.10;;;;;21.20;98256.00;;;;16853029;28;20173;-49
2022/08/16 23:45:40;;;;;;;7.67;7.17;;;;;20.90;98257.00;;;;16842082;28;20304;-50
2022/08/16 23:53:45;;;;;;;6.80;6.30;;;;;21.10;98248.00;;;;16782164;28;20217;-49
